createdAt,value
2022-10-20T00:01:46.516Z,12.07
2022-10-20T00:04:12.963Z,11.74
2022-10-20T00:06:39.520Z,11.68
2022-10-20T00:09:06.760Z,11.39
2022-10-20T00:11:33.654Z,11.28
2022-10-20T00:14:01.869Z,11.41
2022-10-20T00:16:31.002Z,11.46
2022-10-20T00:18:58.569Z,11.47
2022-10-20T00:21:27.359Z,11.56
2022-10-20T00:23:54.273Z,11.45
2022-10-20T00:26:23.996Z,11.59
2022-10-20T00:28:51.415Z,11.43
2022-10-20T00:31:19.773Z,11.74
2022-10-20T00:33:47.254Z,11.64
2022-10-20T00:36:17.217Z,11.30
2022-10-20T00:38:44.061Z,11.42
2022-10-20T00:41:21.091Z,11.19
2022-10-20T00:43:52.677Z,11.37
2022-10-20T00:46:24.766Z,11.35
2022-10-20T00:49:00.251Z,11.35
2022-10-20T00:51:29.852Z,11.24
2022-10-20T00:54:04.991Z,11.16
2022-10-20T00:56:32.452Z,11.29
2022-10-20T00:59:01.470Z,11.23
2022-10-20T01:01:28.144Z,11.25
2022-10-20T01:03:54.747Z,11.00
2022-10-20T01:06:22.719Z,10.91
2022-10-20T01:08:52.826Z,10.95
2022-10-20T01:11:47.543Z,10.84
2022-10-20T01:14:38.805Z,10.77
2022-10-20T01:17:26.561Z,10.96
2022-10-20T01:20:05.281Z,11.02
2022-10-20T01:23:02.781Z,10.94
2022-10-20T01:25:54.420Z,11.08
2022-10-20T01:28:46.378Z,11.38
2022-10-20T01:31:29.048Z,11.43
2022-10-20T01:34:03.465Z,11.35
2022-10-20T01:36:40.705Z,11.47
2022-10-20T01:39:18.528Z,11.31
2022-10-20T01:42:03.653Z,11.16
2022-10-20T01:44:32.135Z,11.27
2022-10-20T01:46:59.573Z,11.19
2022-10-20T01:49:26.416Z,10.94
2022-10-20T01:51:53.631Z,11.18
2022-10-20T01:54:25.586Z,10.94
2022-10-20T01:57:04.134Z,10.97
2022-10-20T01:59:40.487Z,11.41
2022-10-20T02:02:30.534Z,11.53
2022-10-20T02:05:15.825Z,11.12
2022-10-20T02:07:42.980Z,10.97
2022-10-20T02:10:16.683Z,10.81
2022-10-20T02:12:47.194Z,11.15
2022-10-20T02:15:20.553Z,10.65
2022-10-20T02:17:52.196Z,10.56
2022-10-20T02:20:19.567Z,10.57
2022-10-20T02:22:47.154Z,10.93
2022-10-20T02:25:14.077Z,10.70
2022-10-20T02:27:45.369Z,10.81
2022-10-20T02:30:15.158Z,10.94
2022-10-20T02:32:44.162Z,10.55
2022-10-20T02:35:14.709Z,10.42
2022-10-20T02:37:41.207Z,10.41
2022-10-20T02:40:08.119Z,10.42
2022-10-20T02:42:34.730Z,9.99
2022-10-20T02:45:01.345Z,10.03
2022-10-20T02:47:27.894Z,9.79
2022-10-20T02:49:54.364Z,10.10
2022-10-20T02:52:20.822Z,10.00
2022-10-20T02:54:47.326Z,10.12
2022-10-20T02:57:13.833Z,10.16
2022-10-20T02:59:40.348Z,10.37
2022-10-20T03:02:06.943Z,10.28
2022-10-20T03:04:33.603Z,10.33
2022-10-20T03:07:00.091Z,10.04
2022-10-20T03:09:26.635Z,10.27
2022-10-20T03:11:53.096Z,9.87
2022-10-20T03:14:19.577Z,10.22
2022-10-20T03:16:46.027Z,10.14
2022-10-20T03:19:12.538Z,10.12
2022-10-20T03:21:39.144Z,10.03
2022-10-20T03:24:06.115Z,10.06
2022-10-20T03:26:32.700Z,10.48
2022-10-20T03:28:59.195Z,10.52
2022-10-20T03:31:26.134Z,9.95
2022-10-20T03:33:52.633Z,9.95
2022-10-20T03:36:19.188Z,9.72
2022-10-20T03:38:45.685Z,10.06
2022-10-20T03:41:12.593Z,9.89
2022-10-20T03:43:40.082Z,9.96
2022-10-20T03:46:09.582Z,9.86
2022-10-20T03:48:37.636Z,9.55
2022-10-20T03:51:04.845Z,9.97
2022-10-20T03:53:31.765Z,10.48
2022-10-20T03:55:58.353Z,10.66
2022-10-20T03:58:25.005Z,10.94
2022-10-20T04:00:51.741Z,10.97
2022-10-20T04:03:18.241Z,10.20
2022-10-20T04:05:44.714Z,10.01
2022-10-20T04:08:11.378Z,9.95
2022-10-20T04:10:38.307Z,9.92
2022-10-20T04:13:04.887Z,10.00
2022-10-20T04:15:31.665Z,9.79
2022-10-20T04:17:58.546Z,9.56
2022-10-20T04:20:25.048Z,9.89
2022-10-20T04:22:51.531Z,9.88
2022-10-20T04:25:18.293Z,9.95
2022-10-20T04:27:44.830Z,10.13
2022-10-20T04:30:11.860Z,10.18
2022-10-20T04:32:38.380Z,10.08
2022-10-20T04:35:05.492Z,10.16
2022-10-20T04:37:31.973Z,10.31
2022-10-20T04:39:58.451Z,10.64
2022-10-20T04:42:24.990Z,10.34
2022-10-20T04:44:51.529Z,10.37
2022-10-20T04:47:18.088Z,10.07
2022-10-20T04:49:44.538Z,9.77
2022-10-20T04:52:11.115Z,10.03
2022-10-20T04:54:37.772Z,10.22
2022-10-20T04:57:06.008Z,10.18
2022-10-20T04:59:32.542Z,10.13
2022-10-20T05:01:59.137Z,10.09
2022-10-20T05:04:25.797Z,9.70
2022-10-20T05:06:52.321Z,9.67
2022-10-20T05:09:19.541Z,9.88
2022-10-20T05:11:46.311Z,9.75
2022-10-20T05:14:12.775Z,9.93
2022-10-20T05:16:39.249Z,10.06
2022-10-20T05:19:05.881Z,10.13
2022-10-20T05:21:32.871Z,10.00
2022-10-20T05:24:01.683Z,10.32
2022-10-20T05:26:32.394Z,10.37
2022-10-20T05:28:58.984Z,10.08
2022-10-20T05:31:25.505Z,9.98
2022-10-20T05:33:54.343Z,9.88
2022-10-20T05:36:23.831Z,10.16
2022-10-20T05:38:53.421Z,10.25
2022-10-20T05:41:23.586Z,10.19
2022-10-20T05:43:51.591Z,9.94
2022-10-20T05:46:19.448Z,10.30
2022-10-20T05:48:46.910Z,10.37
2022-10-20T05:51:19.138Z,10.26
2022-10-20T05:53:47.055Z,10.23
2022-10-20T05:56:16.728Z,10.08
2022-10-20T05:58:44.274Z,10.29
2022-10-20T06:01:18.071Z,10.40
2022-10-20T06:03:55.917Z,10.41
2022-10-20T06:06:26.033Z,10.35
2022-10-20T06:08:53.479Z,10.44
2022-10-20T06:11:21.521Z,10.19
2022-10-20T06:13:51.719Z,10.77
2022-10-20T06:16:22.156Z,10.92
2022-10-20T06:18:48.946Z,10.77
2022-10-20T06:21:23.952Z,10.77
2022-10-20T06:23:51.161Z,10.86
2022-10-20T06:26:23.711Z,10.96
2022-10-20T06:28:59.783Z,10.93
2022-10-20T06:31:50.728Z,10.96
2022-10-20T06:34:20.625Z,11.26
2022-10-20T06:36:47.953Z,11.39
2022-10-20T06:39:20.096Z,11.51
2022-10-20T06:41:51.328Z,11.23
2022-10-20T06:44:18.520Z,11.33
2022-10-20T06:46:45.221Z,11.58
2022-10-20T06:49:14.665Z,11.36
2022-10-20T06:51:41.197Z,11.30
2022-10-20T06:54:07.923Z,11.60
2022-10-20T06:56:35.903Z,11.92
2022-10-20T06:59:03.790Z,11.92
2022-10-20T07:01:31.581Z,11.83
2022-10-20T07:04:00.725Z,12.20
2022-10-20T07:06:34.915Z,12.54
2022-10-20T07:09:08.165Z,12.85
2022-10-20T07:11:35.185Z,12.89
2022-10-20T07:14:02.730Z,12.71
2022-10-20T07:16:31.635Z,12.04
2022-10-20T07:18:58.472Z,12.10
2022-10-20T07:21:32.253Z,12.31
2022-10-20T07:24:03.879Z,12.27
2022-10-20T07:26:33.318Z,12.64
2022-10-20T07:29:01.535Z,12.26
2022-10-20T07:31:31.267Z,12.57
2022-10-20T07:34:12.954Z,12.84
2022-10-20T07:36:42.823Z,12.99
2022-10-20T07:39:12.767Z,12.99
2022-10-20T07:41:40.054Z,12.74
2022-10-20T07:44:07.653Z,13.02
2022-10-20T07:46:34.316Z,13.58
2022-10-20T07:49:23.849Z,13.49
2022-10-20T07:51:47.283Z,13.83
2022-10-20T07:54:13.789Z,14.29
2022-10-20T07:56:43.963Z,14.06
2022-10-20T07:59:11.384Z,14.15
2022-10-20T08:01:38.413Z,14.07
2022-10-20T08:04:05.101Z,13.78
2022-10-20T08:06:31.747Z,13.94
2022-10-20T08:08:59.780Z,14.24
2022-10-20T08:11:26.862Z,13.88
2022-10-20T08:13:53.350Z,14.03
2022-10-20T08:16:33.352Z,13.68
2022-10-20T08:21:41.006Z,14.27
2022-10-20T08:24:07.537Z,14.15
2022-10-20T08:26:34.556Z,14.03
2022-10-20T08:29:02.550Z,13.20
2022-10-20T08:31:29.081Z,13.45
2022-10-20T08:33:56.780Z,13.76
2022-10-20T08:36:23.250Z,14.18
2022-10-20T08:38:49.768Z,14.17
2022-10-20T08:41:21.898Z,13.85
2022-10-20T08:43:51.962Z,13.89
2022-10-20T08:46:24.521Z,13.99
2022-10-20T08:48:51.374Z,14.42
2022-10-20T08:51:21.350Z,14.13
2022-10-20T08:53:51.654Z,14.31
2022-10-20T08:56:22.777Z,14.07
2022-10-20T08:58:49.438Z,14.30
2022-10-20T09:01:23.524Z,14.48
2022-10-20T09:03:55.599Z,14.44
2022-10-20T09:06:22.568Z,14.74
2022-10-20T09:08:50.099Z,14.59
2022-10-20T09:11:22.442Z,14.90
2022-10-20T09:13:49.358Z,14.30
2022-10-20T09:16:40.916Z,14.03
2022-10-20T09:19:20.312Z,14.31
2022-10-20T09:21:51.159Z,14.28
2022-10-20T09:24:20.067Z,14.35
2022-10-20T09:27:04.499Z,14.48
2022-10-20T09:29:36.935Z,15.12
2022-10-20T09:32:22.491Z,14.81
2022-10-20T09:34:49.998Z,14.73
2022-10-20T09:37:19.607Z,14.90
2022-10-20T09:39:59.496Z,14.53
2022-10-20T09:42:30.888Z,14.69
2022-10-20T09:45:00.256Z,15.26
2022-10-20T09:47:27.890Z,15.15
2022-10-20T09:50:01.207Z,15.10
2022-10-20T09:52:40.554Z,15.75
2022-10-20T09:55:21.137Z,15.75
2022-10-20T09:57:48.187Z,15.28
2022-10-20T10:00:39.168Z,15.36
2022-10-20T10:03:21.890Z,15.03
2022-10-20T10:05:54.219Z,14.75
2022-10-20T10:08:23.157Z,14.67
2022-10-20T10:11:04.495Z,15.20
2022-10-20T10:13:39.212Z,15.30
2022-10-20T10:16:09.017Z,15.33
2022-10-20T10:18:37.369Z,15.13
2022-10-20T10:21:07.290Z,15.40
2022-10-20T10:23:36.564Z,14.71
2022-10-20T10:26:24.084Z,14.82
2022-10-20T10:28:57.951Z,15.07
2022-10-20T10:31:27.430Z,14.67
2022-10-20T10:34:29.629Z,14.53
2022-10-20T10:36:56.103Z,14.68
2022-10-20T10:39:22.610Z,14.66
2022-10-20T10:42:07.358Z,14.91
2022-10-20T10:44:54.234Z,15.23
2022-10-20T10:47:55.826Z,15.03
2022-10-20T10:50:51.515Z,14.80
2022-10-20T10:53:27.724Z,15.00
2022-10-20T10:58:56.104Z,14.70
2022-10-20T11:01:34.584Z,15.01
2022-10-20T11:04:10.199Z,15.47
2022-10-20T11:06:42.399Z,15.02
2022-10-20T11:09:19.847Z,14.68
2022-10-20T11:12:24.003Z,14.81
2022-10-20T11:15:12.358Z,14.90
2022-10-20T11:18:12.873Z,15.09
2022-10-20T11:20:42.161Z,14.90
2022-10-20T11:23:30.301Z,15.21
2022-10-20T11:26:05.891Z,15.17
2022-10-20T11:28:44.405Z,15.89
2022-10-20T11:31:36.594Z,15.58
2022-10-20T11:34:14.234Z,16.23
2022-10-20T11:36:48.901Z,16.69
2022-10-20T11:39:28.536Z,17.25
2022-10-20T11:42:05.077Z,17.25
2022-10-20T11:44:36.964Z,16.72
2022-10-20T11:47:11.381Z,16.43
2022-10-20T11:49:40.168Z,16.16
2022-10-20T11:52:21.274Z,16.39
2022-10-20T11:54:58.135Z,16.13
2022-10-20T11:57:42.779Z,15.82
2022-10-20T12:00:36.061Z,16.32
2022-10-20T12:03:30.765Z,16.52
2022-10-20T12:06:23.612Z,15.96
2022-10-20T12:08:56.280Z,15.36
2022-10-20T12:11:46.447Z,15.59
2022-10-20T12:14:15.643Z,15.90
2022-10-20T12:16:54.355Z,15.95
2022-10-20T12:19:29.764Z,16.18
2022-10-20T12:21:59.311Z,16.29
2022-10-20T12:24:39.353Z,15.91
2022-10-20T12:27:08.820Z,15.66
2022-10-20T12:29:35.298Z,15.75
2022-10-20T12:32:26.183Z,15.91
2022-10-20T12:35:10.806Z,15.95
2022-10-20T12:37:42.131Z,15.52
2022-10-20T12:40:11.241Z,16.03
2022-10-20T12:42:46.261Z,16.05
2022-10-20T12:45:15.803Z,15.75
2022-10-20T12:47:49.507Z,16.04
2022-10-20T12:50:34.959Z,16.03
2022-10-20T12:53:26.721Z,16.06
2022-10-20T12:56:01.071Z,15.82
2022-10-20T12:58:38.447Z,15.55
2022-10-20T13:01:11.804Z,16.07
2022-10-20T13:03:46.745Z,15.96
2022-10-20T13:06:22.083Z,16.12
2022-10-20T13:09:03.893Z,16.69
2022-10-20T13:11:40.659Z,16.28
2022-10-20T13:14:13.056Z,16.18
2022-10-20T13:16:51.380Z,15.77
2022-10-20T13:19:24.659Z,16.27
2022-10-20T13:21:51.597Z,16.48
2022-10-20T13:24:27.225Z,16.18
2022-10-20T13:26:59.584Z,16.13
2022-10-20T13:29:30.595Z,16.12
2022-10-20T13:32:12.347Z,15.90
2022-10-20T13:34:48.896Z,16.23
2022-10-20T13:37:37.591Z,15.96
2022-10-20T13:40:04.099Z,16.06
2022-10-20T13:42:42.634Z,16.05
2022-10-20T13:45:21.045Z,15.63
2022-10-20T13:47:51.642Z,15.59
2022-10-20T13:50:29.821Z,15.90
2022-10-20T13:53:00.167Z,15.83
2022-10-20T13:55:29.802Z,15.50
2022-10-20T13:58:07.364Z,15.77
2022-10-20T14:00:36.098Z,16.30
2022-10-20T14:03:18.384Z,16.01
2022-10-20T14:05:44.884Z,15.66
2022-10-20T14:08:14.115Z,15.66
2022-10-20T14:10:49.077Z,15.60
2022-10-20T14:13:21.972Z,15.91
2022-10-20T14:15:55.106Z,16.03
2022-10-20T14:18:23.731Z,16.22
2022-10-20T14:20:57.786Z,15.73
2022-10-20T14:23:25.108Z,15.69
2022-10-20T14:25:53.495Z,15.98
2022-10-20T14:28:21.042Z,16.09
2022-10-20T14:30:50.157Z,16.04
2022-10-20T14:33:17.627Z,16.04
2022-10-20T14:35:50.005Z,15.97
2022-10-20T14:38:37.823Z,15.32
2022-10-20T14:41:07.533Z,15.58
2022-10-20T14:43:41.391Z,15.43
2022-10-20T14:46:11.435Z,15.73
2022-10-20T14:48:43.735Z,15.79
2022-10-20T14:51:30.610Z,15.26
2022-10-20T14:54:22.270Z,15.28
2022-10-20T14:57:19.659Z,15.20
2022-10-20T14:59:50.701Z,15.08
2022-10-20T15:02:22.661Z,15.27
2022-10-20T15:04:51.956Z,15.63
2022-10-20T15:07:22.671Z,15.55
2022-10-20T15:09:50.857Z,15.19
2022-10-20T15:12:18.996Z,15.63
2022-10-20T15:14:49.750Z,14.84
2022-10-20T15:17:36.870Z,15.53
2022-10-20T15:20:29.806Z,15.34
2022-10-20T15:22:58.117Z,15.12
2022-10-20T15:25:27.334Z,15.12
2022-10-20T15:27:55.897Z,15.22
2022-10-20T15:30:24.249Z,15.56
2022-10-20T15:32:51.211Z,15.24
2022-10-20T15:35:20.527Z,15.30
2022-10-20T15:37:49.014Z,15.12
2022-10-20T15:40:15.812Z,14.87
2022-10-20T15:42:43.177Z,14.80
2022-10-20T15:45:12.829Z,15.05
2022-10-20T15:47:39.387Z,14.97
2022-10-20T15:50:06.316Z,14.98
2022-10-20T15:52:32.841Z,15.00
2022-10-20T15:54:59.424Z,15.04
2022-10-20T15:57:25.896Z,15.07
2022-10-20T15:59:52.487Z,15.29
2022-10-20T16:02:18.956Z,15.42
2022-10-20T16:04:45.439Z,15.48
2022-10-20T16:07:11.966Z,15.12
2022-10-20T16:09:38.725Z,15.24
2022-10-20T16:12:05.429Z,14.80
2022-10-20T16:14:31.995Z,14.73
2022-10-20T16:17:01.326Z,14.61
2022-10-20T16:19:27.900Z,14.82
2022-10-20T16:21:54.407Z,14.85
2022-10-20T16:24:20.901Z,14.78
2022-10-20T16:26:47.427Z,15.34
2022-10-20T16:29:13.953Z,15.26
2022-10-20T16:31:40.516Z,14.86
2022-10-20T16:34:07.103Z,14.93
2022-10-20T16:36:34.766Z,15.21
2022-10-20T16:39:01.278Z,15.02
2022-10-20T16:41:27.762Z,15.00
2022-10-20T16:43:57.536Z,15.21
2022-10-20T16:46:25.757Z,14.66
2022-10-20T16:48:52.303Z,15.18
2022-10-20T16:51:18.832Z,15.10
2022-10-20T16:53:45.701Z,15.19
2022-10-20T16:56:15.372Z,14.57
2022-10-20T16:58:44.899Z,14.40
2022-10-20T17:01:13.173Z,14.76
2022-10-20T17:03:45.233Z,14.72
2022-10-20T17:06:12.635Z,14.73
2022-10-20T17:08:40.063Z,14.47
2022-10-20T17:11:10.684Z,14.82
2022-10-20T17:13:38.933Z,14.94
2022-10-20T17:16:08.249Z,15.08
2022-10-20T17:18:34.882Z,15.44
2022-10-20T17:21:01.742Z,15.51
2022-10-20T17:23:31.927Z,14.84
2022-10-20T17:26:00.948Z,14.93
2022-10-20T17:28:31.357Z,15.29
2022-10-20T17:30:57.872Z,15.64
2022-10-20T17:33:27.044Z,14.88
2022-10-20T17:35:55.060Z,14.93
2022-10-20T17:38:22.004Z,15.52
2022-10-20T17:40:48.809Z,15.04
2022-10-20T17:43:15.583Z,15.20
2022-10-20T17:45:42.190Z,14.94
2022-10-20T17:48:13.276Z,15.07
2022-10-20T17:50:39.756Z,15.43
2022-10-20T17:53:06.231Z,15.58
2022-10-20T17:55:33.469Z,15.54
2022-10-20T17:58:04.902Z,15.69
2022-10-20T18:00:54.922Z,14.55
2022-10-20T18:03:18.680Z,14.41
2022-10-20T18:05:45.141Z,14.77
2022-10-20T18:08:11.650Z,14.85
2022-10-20T18:10:43.808Z,14.72
2022-10-20T18:13:10.842Z,14.78
2022-10-20T18:15:42.354Z,14.19
2022-10-20T18:18:08.944Z,14.43
2022-10-20T18:20:35.434Z,14.46
2022-10-20T18:23:02.021Z,14.84
2022-10-20T18:25:28.563Z,15.20
2022-10-20T18:27:55.299Z,14.33
2022-10-20T18:30:21.933Z,14.56
2022-10-20T18:32:48.438Z,14.97
2022-10-20T18:35:15.232Z,15.08
2022-10-20T18:37:42.353Z,14.71
2022-10-20T18:40:09.249Z,15.03
2022-10-20T18:42:35.727Z,14.71
2022-10-20T18:45:02.272Z,15.35
2022-10-20T18:47:28.801Z,15.01
2022-10-20T18:49:55.331Z,15.42
2022-10-20T18:52:21.886Z,14.83
2022-10-20T18:54:48.378Z,15.51
2022-10-20T18:57:14.940Z,15.48
2022-10-20T18:59:41.554Z,15.08
2022-10-20T19:02:10.224Z,15.37
2022-10-20T19:04:36.700Z,14.70
2022-10-20T19:07:03.195Z,14.37
2022-10-20T19:09:29.664Z,14.59
2022-10-20T19:11:56.224Z,14.63
2022-10-20T19:14:22.801Z,14.85
2022-10-20T19:16:50.113Z,14.93
2022-10-20T19:19:16.840Z,14.59
2022-10-20T19:21:43.762Z,14.81
2022-10-20T19:24:22.475Z,14.80
2022-10-20T19:27:25.060Z,15.21
2022-10-20T19:29:41.924Z,14.95
2022-10-20T19:32:08.459Z,14.90
2022-10-20T19:34:38.116Z,14.90
2022-10-20T19:37:04.674Z,15.20
2022-10-20T19:39:34.506Z,15.51
2022-10-20T19:42:02.620Z,15.09
2022-10-20T19:44:30.142Z,15.48
2022-10-20T19:46:57.078Z,15.63
2022-10-20T19:49:24.760Z,15.14
2022-10-20T19:51:51.635Z,15.52
2022-10-20T19:54:18.459Z,15.64
2022-10-20T19:56:45.054Z,15.69
2022-10-20T19:59:12.252Z,15.22
2022-10-20T20:01:39.375Z,15.34
2022-10-20T20:04:06.389Z,15.29
2022-10-20T20:06:33.958Z,15.28
2022-10-20T20:09:03.440Z,15.25
2022-10-20T20:11:31.076Z,15.18
2022-10-20T20:14:00.634Z,15.13
2022-10-20T20:16:27.930Z,14.64
2022-10-20T20:18:54.618Z,14.96
2022-10-20T20:21:22.047Z,15.01
2022-10-20T20:23:59.252Z,14.73
2022-10-20T20:26:31.225Z,15.08
2022-10-20T20:28:58.202Z,15.21
2022-10-20T20:31:25.746Z,15.44
2022-10-20T20:33:53.072Z,15.07
2022-10-20T20:36:20.079Z,15.21
2022-10-20T20:38:46.837Z,15.25
2022-10-20T20:41:15.666Z,15.03
2022-10-20T20:43:45.089Z,15.35
2022-10-20T20:46:16.912Z,15.09
2022-10-20T20:48:44.244Z,15.42
2022-10-20T20:51:11.366Z,15.49
2022-10-20T20:53:39.461Z,15.21
2022-10-20T20:56:09.293Z,15.37
2022-10-20T20:58:36.221Z,15.07
2022-10-20T21:01:17.560Z,15.30
2022-10-20T21:03:44.976Z,15.30
2022-10-20T21:06:17.011Z,15.34
2022-10-20T21:08:46.289Z,15.50
2022-10-20T21:11:18.379Z,15.54
2022-10-20T21:13:45.642Z,15.57
2022-10-20T21:16:20.793Z,15.84
2022-10-20T21:18:50.297Z,15.98
2022-10-20T21:21:19.405Z,15.57
2022-10-20T21:23:45.922Z,15.60
2022-10-20T21:26:14.294Z,15.61
2022-10-20T21:28:42.230Z,15.37
2022-10-20T21:31:12.072Z,15.35
2022-10-20T21:33:39.158Z,15.61
2022-10-20T21:36:16.266Z,15.63
2022-10-20T21:38:43.467Z,15.76
2022-10-20T21:41:16.410Z,15.49
2022-10-20T21:43:45.628Z,15.30
2022-10-20T21:46:22.386Z,15.47
2022-10-20T21:48:53.001Z,15.53
2022-10-20T21:51:26.117Z,15.45
2022-10-20T21:53:57.138Z,15.31
2022-10-20T21:56:24.368Z,15.31
2022-10-20T21:58:52.039Z,15.63
2022-10-20T22:01:21.183Z,15.79
2022-10-20T22:03:49.072Z,15.63
2022-10-20T22:06:17.599Z,15.70
2022-10-20T22:08:48.655Z,15.53
2022-10-20T22:11:36.830Z,15.65
2022-10-20T22:14:04.612Z,15.71
2022-10-20T22:16:34.392Z,15.51
2022-10-20T22:19:22.446Z,15.78
2022-10-20T22:21:51.326Z,16.00
2022-10-20T22:24:19.456Z,15.42
2022-10-20T22:26:47.340Z,15.62
2022-10-20T22:29:22.312Z,15.47
2022-10-20T22:31:49.527Z,15.36
2022-10-20T22:34:16.104Z,15.56
2022-10-20T22:36:44.238Z,15.72
2022-10-20T22:41:42.579Z,15.59
2022-10-20T22:44:09.282Z,15.41
2022-10-20T22:46:35.811Z,15.56
2022-10-20T22:49:02.794Z,15.64
2022-10-20T22:51:29.529Z,15.92
2022-10-20T22:53:56.140Z,15.59
2022-10-20T22:56:23.769Z,15.66
2022-10-20T22:58:52.629Z,16.15
2022-10-20T23:01:21.505Z,15.68
2022-10-20T23:03:48.280Z,15.34
2022-10-20T23:06:18.454Z,15.71
2022-10-20T23:08:47.566Z,15.97
2022-10-20T23:11:14.842Z,15.20
2022-10-20T23:13:41.829Z,15.88
2022-10-20T23:16:08.426Z,16.16
2022-10-20T23:18:35.525Z,16.34
2022-10-20T23:21:02.157Z,15.35
2022-10-20T23:23:29.015Z,15.76
2022-10-20T23:25:56.285Z,15.13
2022-10-20T23:28:24.182Z,15.39
2022-10-20T23:30:50.794Z,15.78
2022-10-20T23:33:17.361Z,15.66
2022-10-20T23:35:46.557Z,15.20
2022-10-20T23:38:13.058Z,15.95
2022-10-20T23:40:39.590Z,15.85
2022-10-20T23:43:06.106Z,15.92
2022-10-20T23:45:38.135Z,15.55
2022-10-20T23:48:04.762Z,15.25
2022-10-20T23:50:31.276Z,15.13
2022-10-20T23:52:57.735Z,15.47
2022-10-20T23:55:24.197Z,15.02
2022-10-20T23:57:50.925Z,15.09
